Time;durP1;ratioP1;P1;durP2;ratioP2;P2;SDS_P1;SDS_P2;PMS_P1;PMS_P2;Temp;Humidity;BMP_temperature;BMP_pressure;BME280_temperature;BME280_humidity;BME280_pressure;Samples;Min_cycle;Max_cycle;Signal;HPM_P1;HPM_P2
2022/04/07 00:00:30;;;;;;;3.80;3.50;;;;;;;8.77;100.00;97865.28;5051424;28;20229;-79
2022/04/07 00:02:56;;;;;;;3.67;3.20;;;;;;;8.75;100.00;97871.94;5051741;28;20313;-78
2022/04/07 00:05:23;;;;;;;3.23;2.87;;;;;;;8.74;100.00;97878.31;5051221;28;20319;-79
2022/04/07 00:07:50;;;;;;;2.70;2.50;;;;;;;9.00;100.00;97880.22;5051786;28;20589;-79
2022/04/07 00:10:18;;;;;;;2.97;2.47;;;;;;;9.00;100.00;97885.56;5051399;28;20237;-79
2022/04/07 00:12:44;;;;;;;2.23;2.13;;;;;;;9.06;100.00;97884.53;5050330;28;20236;-79
2022/04/07 00:15:11;;;;;;;3.30;3.00;;;;;;;9.09;100.00;97883.25;5050473;28;20229;-78
2022/04/07 00:17:38;;;;;;;2.37;2.17;;;;;;;9.18;100.00;97876.41;5051582;28;20320;-77
2022/04/07 00:20:06;;;;;;;2.90;2.10;;;;;;;9.30;100.00;97879.69;5049902;28;20230;-78
2022/04/07 00:22:34;;;;;;;2.83;2.13;;;;;;;9.34;100.00;97872.78;5051586;28;20244;-79
2022/04/07 00:25:02;;;;;;;2.63;2.03;;;;;;;9.37;100.00;97861.59;5046466;28;20247;-78
2022/04/07 00:27:29;;;;;;;2.83;2.63;;;;;;;9.49;100.00;97864.09;5051475;28;20229;-79
2022/04/07 00:29:57;;;;;;;3.20;2.87;;;;;;;9.54;100.00;97864.13;5050420;28;20250;-78
2022/04/07 00:32:24;;;;;;;2.43;2.23;;;;;;;9.58;100.00;97857.22;5051332;28;20237;-78
2022/04/07 00:34:54;;;;;;;2.33;2.10;;;;;;;9.76;100.00;97858.69;5051797;28;20705;-79
2022/04/07 00:37:24;;;;;;;3.30;2.60;;;;;;;9.77;100.00;97866.44;5051822;28;20784;-78
2022/04/07 00:39:51;;;;;;;2.53;2.33;;;;;;;9.79;100.00;97866.22;5042031;28;20233;-78
2022/04/07 00:42:18;;;;;;;2.20;2.00;;;;;;;9.89;100.00;97858.25;5045918;28;20332;-78
2022/04/07 00:44:45;;;;;;;2.83;2.63;;;;;;;9.96;100.00;97856.94;5051790;28;20229;-79
2022/04/07 00:47:12;;;;;;;3.07;2.60;;;;;;;9.96;100.00;97866.84;5053307;28;20271;-79
2022/04/07 00:49:39;;;;;;;2.50;2.30;;;;;;;9.98;100.00;97865.53;5046528;28;20234;-79
2022/04/07 00:52:07;;;;;;;2.30;2.00;;;;;;;10.00;100.00;97863.41;5046732;28;20244;-78
2022/04/07 00:54:34;;;;;;;1.30;1.20;;;;;;;10.13;100.00;97867.47;5048740;28;20229;-79
2022/04/07 00:57:02;;;;;;;1.90;1.30;;;;;;;10.28;100.00;97864.13;5052430;28;20283;-78
2022/04/07 00:59:29;;;;;;;0.80;0.80;;;;;;;10.76;100.00;97857.63;5043933;28;20248;-79
2022/04/07 01:01:56;;;;;;;1.10;0.87;;;;;;;10.92;100.00;97859.25;5050890;28;20665;-77
2022/04/07 01:04:24;;;;;;;1.27;0.90;;;;;;;11.01;100.00;97857.69;5049627;28;20756;-78
2022/04/07 01:06:52;;;;;;;1.53;0.90;;;;;;;11.04;100.00;97855.28;5052910;28;20226;-78
2022/04/07 01:09:20;;;;;;;1.10;1.00;;;;;;;11.14;100.00;97851.81;5047324;28;20336;-79
2022/04/07 01:11:47;;;;;;;0.80;0.80;;;;;;;11.42;100.00;97848.63;5050983;28;20237;-79
2022/04/07 01:14:14;;;;;;;0.70;0.70;;;;;;;11.40;100.00;97848.09;5054928;28;20648;-77
2022/04/07 01:16:41;;;;;;;1.10;0.80;;;;;;;11.52;100.00;97842.47;5051337;28;20241;-78
2022/04/07 01:19:09;;;;;;;2.20;0.70;;;;;;;11.77;97.20;97838.97;5056306;28;20233;-79
2022/04/07 01:21:37;;;;;;;0.77;0.50;;;;;;;11.83;92.92;97837.91;5055982;28;20233;-77
2022/04/07 01:24:05;;;;;;;0.50;0.50;;;;;;;11.87;90.89;97838.97;5050644;28;20245;-78
2022/04/07 01:26:37;;;;;;;0.97;0.43;;;;;;;11.88;88.27;97844.06;5045668;28;20287;-78
2022/04/07 01:29:09;;;;;;;0.50;0.30;;;;;;;11.86;86.79;97840.03;5042900;28;20237;-79
2022/04/07 01:31:36;;;;;;;0.50;0.50;;;;;;;12.05;84.57;97845.63;5042537;28;20286;-78
2022/04/07 01:34:05;;;;;;;0.70;0.60;;;;;;;11.93;84.38;97848.63;5055646;28;20255;-79
2022/04/07 01:36:35;;;;;;;1.63;0.43;;;;;;;12.14;82.12;97847.50;5056140;28;20233;-79
2022/04/07 01:39:02;;;;;;;0.60;0.50;;;;;;;12.15;80.74;97841.06;5050947;28;20232;-78
2022/04/07 01:41:29;;;;;;;0.50;0.40;;;;;;;12.09;81.70;97839.44;5059679;28;20674;-78
2022/04/07 01:43:57;;;;;;;0.40;0.40;;;;;;;12.01;82.49;97839.22;5051452;28;20849;-79
2022/04/07 01:46:25;;;;;;;0.67;0.40;;;;;;;11.99;82.36;97838.69;5058761;28;20245;-78
2022/04/07 01:48:52;;;;;;;0.60;0.40;;;;;;;11.87;83.64;97837.09;5053153;28;20225;-80
2022/04/07 01:51:19;;;;;;;0.43;0.43;;;;;;;11.76;84.64;97840.03;5053480;28;20721;-79
2022/04/07 01:53:46;;;;;;;0.47;0.30;;;;;;;11.69;85.11;97845.66;5058597;28;20332;-79
2022/04/07 01:56:13;;;;;;;0.43;0.40;;;;;;;11.62;85.66;97847.03;5053261;28;20276;-79
2022/04/07 01:58:40;;;;;;;0.90;0.50;;;;;;;11.53;85.83;97851.28;5052465;28;20252;-78
2022/04/07 02:01:07;;;;;;;0.40;0.40;;;;;;;11.41;86.11;97849.69;5052004;28;20233;-79
2022/04/07 02:03:34;;;;;;;3.27;0.70;;;;;;;11.31;87.53;97844.31;5045348;28;20755;-79
2022/04/07 02:06:11;;;;;;;0.70;0.70;;;;;;;11.28;88.77;97844.88;5045804;28;20230;-77
2022/04/07 02:08:38;;;;;;;2.60;1.40;;;;;;;11.25;88.89;97841.91;5046118;28;20255;-77
2022/04/07 02:11:05;;;;;;;1.60;1.50;;;;;;;11.13;90.30;97838.69;5053434;28;20255;-78
2022/04/07 02:13:33;;;;;;;0.90;0.80;;;;;;;11.06;92.62;97830.09;5053189;28;20233;-78
2022/04/07 02:16:01;;;;;;;1.17;0.70;;;;;;;10.94;93.75;97828.47;5053116;28;20263;-79
2022/04/07 02:18:28;;;;;;;0.63;0.50;;;;;;;10.83;95.64;97823.34;5052880;28;20293;-78
2022/04/07 02:20:55;;;;;;;1.10;0.70;;;;;;;10.76;96.90;97817.44;5053045;28;20312;-78
2022/04/07 02:23:22;;;;;;;0.93;0.70;;;;;;;10.72;96.52;97819.03;5053127;28;20316;-79
2022/04/07 02:25:48;;;;;;;0.67;0.67;;;;;;;10.62;96.82;97817.13;5051610;28;20327;-79
2022/04/07 02:28:15;;;;;;;1.13;0.60;;;;;;;10.50;99.09;97827.25;5052930;28;20233;-77
2022/04/07 02:30:42;;;;;;;0.90;0.50;;;;;;;10.43;100.00;97826.72;5040507;28;20229;-79
2022/04/07 02:33:09;;;;;;;0.50;0.50;;;;;;;10.38;100.00;97821.34;5047702;28;20229;-79
2022/04/07 02:35:35;;;;;;;1.07;0.60;;;;;;;10.29;100.00;97817.56;5050249;28;20368;-79
2022/04/07 02:38:02;;;;;;;0.60;0.60;;;;;;;10.26;100.00;97816.22;5045478;28;20284;-78
2022/04/07 02:40:29;;;;;;;0.60;0.60;;;;;;;10.18;100.00;97816.69;5051941;28;20307;-78
2022/04/07 02:42:55;;;;;;;1.27;0.73;;;;;;;10.10;100.00;97809.94;5049099;28;20260;-79
2022/04/07 02:45:22;;;;;;;0.50;0.50;;;;;;;10.08;100.00;97808.56;5046058;28;20602;-77
2022/04/07 02:47:49;;;;;;;0.60;0.60;;;;;;;10.29;100.00;97804.16;5050892;28;21429;-79
2022/04/07 02:50:19;;;;;;;1.00;0.80;;;;;;;10.22;100.00;97800.94;5050685;28;20707;-78
2022/04/07 02:52:46;;;;;;;1.93;0.73;;;;;;;10.23;100.00;97803.34;5045604;28;20275;-79
2022/04/07 02:55:12;;;;;;;0.50;0.50;;;;;;;10.36;100.00;97805.53;5053516;28;20225;-79
2022/04/07 02:57:39;;;;;;;0.30;0.30;;;;;;;10.54;98.12;97802.38;5052964;28;20647;-78
2022/04/07 03:00:07;;;;;;;0.63;0.30;;;;;;;10.71;95.57;97802.16;5046967;28;20222;-78
2022/04/07 03:02:34;;;;;;;0.40;0.30;;;;;;;10.80;92.79;97802.44;5052397;28;20233;-79
2022/04/07 03:05:00;;;;;;;0.20;0.20;;;;;;;11.14;89.42;97806.25;5053177;28;20726;-78
2022/04/07 03:07:27;;;;;;;0.20;0.20;;;;;;;11.19;89.13;97806.25;5052431;28;20582;-79
2022/04/07 03:09:54;;;;;;;0.30;0.30;;;;;;;11.13;89.34;97801.97;5047257;28;20250;-77
2022/04/07 03:12:21;;;;;;;0.40;0.40;;;;;;;11.42;87.84;97794.19;5042261;28;20239;-78
2022/04/07 03:14:48;;;;;;;0.20;0.20;;;;;;;11.54;86.92;97810.81;5047574;28;20232;-78
2022/04/07 03:17:15;;;;;;;0.20;0.20;;;;;;;11.56;85.54;97803.31;5052626;28;20221;-79
2022/04/07 03:19:41;;;;;;;0.30;0.30;;;;;;;11.54;86.58;97813.47;5047954;28;20229;-78
2022/04/07 03:22:08;;;;;;;0.20;0.20;;;;;;;11.63;86.11;97816.41;5052442;28;20239;-79
2022/04/07 03:24:35;;;;;;;0.30;0.27;;;;;;;11.63;87.68;97809.19;5052605;28;20236;-79
2022/04/07 03:27:07;;;;;;;0.67;0.30;;;;;;;11.76;86.24;97814.03;5052462;28;20308;-78
2022/04/07 03:29:34;;;;;;;1.40;0.30;;;;;;;11.99;84.57;97812.63;5052493;28;20637;-78
2022/04/07 03:32:03;;;;;;;0.57;0.30;;;;;;;11.96;84.64;97807.00;5046573;28;20334;-78
2022/04/07 03:34:31;;;;;;;1.07;0.30;;;;;;;12.03;84.76;97808.34;5045835;28;20232;-79
2022/04/07 03:36:57;;;;;;;1.20;0.30;;;;;;;12.10;86.12;97808.03;5051993;28;20229;-79
2022/04/07 03:39:24;;;;;;;0.50;0.50;;;;;;;12.14;86.04;97801.03;5051765;28;20229;-79
2022/04/07 03:41:51;;;;;;;0.30;0.30;;;;;;;12.05;87.92;97795.44;5051791;28;20247;-79
2022/04/07 03:44:18;;;;;;;0.47;0.40;;;;;;;12.01;89.73;97807.81;5051362;28;20241;-78
2022/04/07 03:46:45;;;;;;;0.43;0.37;;;;;;;11.97;93.43;97803.25;5051670;28;20221;-78
2022/04/07 03:49:12;;;;;;;1.37;0.40;;;;;;;12.00;98.74;97808.06;5046340;28;20274;-79
2022/04/07 03:51:38;;;;;;;0.30;0.30;;;;;;;11.82;100.00;97804.09;5040489;28;20307;-78
2022/04/07 03:54:10;;;;;;;1.07;0.30;;;;;;;11.96;100.00;97793.59;5050437;28;20233;-78
2022/04/07 03:56:37;;;;;;;0.60;0.40;;;;;;;11.97;100.00;97787.16;5045741;28;20312;-79
2022/04/07 03:59:04;;;;;;;0.97;0.40;;;;;;;11.86;100.00;97791.72;5051648;28;20239;-79
2022/04/07 04:01:30;;;;;;;0.47;0.37;;;;;;;11.77;100.00;97796.03;5051351;28;20233;-79
2022/04/07 04:03:57;;;;;;;0.73;0.40;;;;;;;11.84;100.00;97788.53;5051339;28;20237;-78
2022/04/07 04:06:24;;;;;;;1.03;0.33;;;;;;;11.65;100.00;97790.97;5050935;28;20218;-78
2022/04/07 04:08:51;;;;;;;0.20;0.20;;;;;;;11.88;100.00;97792.28;5051761;28;20245;-78
2022/04/07 04:11:18;;;;;;;1.80;0.30;;;;;;;11.68;100.00;97792.28;5051919;28;20244;-78
2022/04/07 04:13:45;;;;;;;0.27;0.27;;;;;;;11.54;100.00;97793.91;5051796;28;20236;-79
2022/04/07 04:16:15;;;;;;;0.40;0.40;;;;;;;11.52;100.00;97794.19;5051757;28;20233;-78
2022/04/07 04:18:43;;;;;;;1.60;0.40;;;;;;;11.37;100.00;97812.97;5051745;28;20230;-78
2022/04/07 04:21:09;;;;;;;0.37;0.37;;;;;;;11.28;100.00;97820.75;5052152;28;20225;-79
2022/04/07 04:23:38;;;;;;;2.00;0.40;;;;;;;11.18;100.00;97836.00;5055169;28;20244;-78
2022/04/07 04:26:05;;;;;;;0.60;0.30;;;;;;;11.12;100.00;97835.19;5055111;28;20236;-79
2022/04/07 04:28:32;;;;;;;1.17;0.30;;;;;;;11.09;100.00;97843.78;5049660;28;20233;-77
2022/04/07 04:30:59;;;;;;;1.13;0.40;;;;;;;10.93;100.00;97842.13;5054821;28;20233;-78
2022/04/07 04:33:26;;;;;;;0.67;0.40;;;;;;;10.95;100.00;97843.47;5054923;28;20229;-79
2022/04/07 04:35:59;;;;;;;1.00;0.53;;;;;;;10.88;100.00;97850.16;5054849;28;20251;-78
2022/04/07 04:38:26;;;;;;;0.60;0.40;;;;;;;10.68;100.00;97853.59;5054529;28;20318;-79
2022/04/07 04:40:53;;;;;;;0.50;0.50;;;;;;;10.78;100.00;97863.53;5053765;28;20316;-79
2022/04/07 04:43:20;;;;;;;0.90;0.80;;;;;;;10.63;100.00;97855.44;5054599;28;20228;-79
2022/04/07 04:45:47;;;;;;;1.23;0.53;;;;;;;10.54;100.00;97853.25;5049570;28;20263;-78
2022/04/07 04:48:13;;;;;;;1.07;0.60;;;;;;;10.54;100.00;97852.47;5048703;28;20709;-77
2022/04/07 04:50:40;;;;;;;0.60;0.50;;;;;;;10.51;100.00;97847.63;5054732;28;20241;-78
2022/04/07 04:53:07;;;;;;;1.40;0.57;;;;;;;10.49;100.00;97858.59;5054730;28;20226;-79
2022/04/07 04:55:34;;;;;;;1.87;0.57;;;;;;;10.38;100.00;97848.91;5055163;28;20263;-78
2022/04/07 04:58:00;;;;;;;1.33;0.80;;;;;;;10.41;100.00;97850.25;5054914;28;20236;-79
2022/04/07 05:00:27;;;;;;;1.83;0.70;;;;;;;10.38;100.00;97851.59;5053465;28;20594;-79
2022/04/07 05:02:54;;;;;;;1.10;0.70;;;;;;;10.39;100.00;97855.88;5053499;28;20247;-77
2022/04/07 05:05:21;;;;;;;2.47;0.60;;;;;;;10.50;100.00;97851.34;5054946;28;20855;-79
2022/04/07 05:07:47;;;;;;;1.20;0.60;;;;;;;10.47;100.00;97851.88;5054759;28;20816;-77
2022/04/07 05:10:14;;;;;;;1.13;0.70;;;;;;;10.55;100.00;97857.53;5049261;28;20225;-77
2022/04/07 05:12:41;;;;;;;0.93;0.70;;;;;;;10.50;100.00;97859.38;5054382;28;20240;-78
2022/04/07 05:15:08;;;;;;;0.50;0.50;;;;;;;10.53;100.00;97856.22;5046062;28;20733;-79
2022/04/07 05:17:35;;;;;;;0.90;0.70;;;;;;;10.47;100.00;97860.72;5045240;28;20234;-78
2022/04/07 05:20:03;;;;;;;1.33;0.70;;;;;;;10.54;100.00;97857.81;5054714;28;20248;-78
2022/04/07 05:22:29;;;;;;;1.97;0.70;;;;;;;10.61;100.00;97861.06;5053409;28;20743;-78
2022/04/07 05:24:56;;;;;;;1.27;0.70;;;;;;;10.67;100.00;97870.72;5046402;28;20696;-79
2022/04/07 05:27:23;;;;;;;3.37;0.90;;;;;;;10.69;100.00;97865.88;5054377;28;20249;-78
2022/04/07 05:29:49;;;;;;;1.27;0.70;;;;;;;10.74;100.00;97860.56;5046833;28;20320;-78
2022/04/07 05:32:16;;;;;;;0.93;0.80;;;;;;;10.76;100.00;97862.97;5053405;28;20705;-78
2022/04/07 05:34:43;;;;;;;2.13;0.77;;;;;;;10.82;100.00;97872.66;5054233;28;20225;-79
2022/04/07 05:37:10;;;;;;;1.80;1.70;;;;;;;11.01;100.00;97871.09;5049979;28;20225;-77
2022/04/07 05:39:36;;;;;;;1.57;1.47;;;;;;;11.05;100.00;97877.53;5054110;28;20264;-79
2022/04/07 05:42:03;;;;;;;1.17;0.77;;;;;;;11.06;100.00;97873.75;5048872;28;20325;-78
2022/04/07 05:44:30;;;;;;;2.07;0.70;;;;;;;11.11;100.00;97872.97;5054355;28;20252;-78
2022/04/07 05:46:57;;;;;;;1.00;0.60;;;;;;;11.14;100.00;97880.50;5049662;28;20221;-78
2022/04/07 05:49:23;;;;;;;1.80;0.50;;;;;;;11.22;100.00;97879.97;5044593;28;20229;-78
2022/04/07 05:51:53;;;;;;;0.70;0.50;;;;;;;11.29;100.00;97885.88;5053494;28;20222;-79
2022/04/07 05:54:20;;;;;;;1.17;0.60;;;;;;;11.39;100.00;97886.69;5048348;28;20236;-79
2022/04/07 05:56:47;;;;;;;1.00;0.90;;;;;;;11.52;100.00;97885.38;5053466;28;20225;-78
2022/04/07 05:59:14;;;;;;;1.07;0.57;;;;;;;11.54;100.00;97887.78;5050212;28;20233;-78
2022/04/07 06:01:40;;;;;;;0.97;0.70;;;;;;;11.61;100.00;97883.78;5045878;28;20686;-78
2022/04/07 06:04:07;;;;;;;0.80;0.70;;;;;;;11.63;100.00;97883.47;5037105;28;20230;-78
2022/04/07 06:06:34;;;;;;;2.40;0.87;;;;;;;11.63;100.00;97883.47;5052571;28;20233;-78
2022/04/07 06:09:00;;;;;;;2.80;0.80;;;;;;;11.74;100.00;97883.25;5053873;28;20312;-78
2022/04/07 06:11:27;;;;;;;0.60;0.60;;;;;;;11.85;100.00;97874.09;5053943;28;20229;-78
2022/04/07 06:13:54;;;;;;;0.97;0.70;;;;;;;11.96;100.00;97868.72;5048511;28;20724;-79
2022/04/07 06:16:21;;;;;;;0.90;0.70;;;;;;;12.12;100.00;97870.31;5053381;28;20237;-78
2022/04/07 06:18:48;;;;;;;1.33;1.00;;;;;;;12.36;100.00;97871.34;5042251;28;20263;-78
2022/04/07 06:21:15;;;;;;;1.63;1.03;;;;;;;12.53;100.00;97860.25;5045475;28;20261;-78
2022/04/07 06:23:42;;;;;;;3.43;1.00;;;;;;;12.65;100.00;97858.06;5052829;28;20773;-79
2022/04/07 06:26:09;;;;;;;1.03;1.00;;;;;;;12.83;100.00;97853.97;5037696;28;20264;-79
2022/04/07 06:28:36;;;;;;;0.93;0.93;;;;;;;12.97;100.00;97858.44;5037101;28;20227;-79
2022/04/07 06:31:02;;;;;;;1.93;1.10;;;;;;;13.16;100.00;97855.94;5037042;28;20219;-78
2022/04/07 06:33:29;;;;;;;1.10;1.00;;;;;;;13.27;100.00;97856.66;5042043;28;20278;-79
2022/04/07 06:36:16;;;;;;;1.17;1.07;;;;;;;13.45;100.00;97858.69;5041021;28;20233;-78
2022/04/07 06:38:43;;;;;;;1.20;1.10;;;;;;;13.45;100.00;97856.00;5042669;28;20275;-78
2022/04/07 06:41:10;;;;;;;1.30;1.20;;;;;;;13.48;100.00;97842.81;5040020;28;20418;-78
2022/04/07 06:43:36;;;;;;;1.50;1.20;;;;;;;13.49;100.00;97843.59;5039070;28;20311;-79
2022/04/07 06:46:03;;;;;;;2.30;1.10;;;;;;;13.77;100.00;97848.19;5042319;28;20242;-78
2022/04/07 06:48:30;;;;;;;1.47;1.17;;;;;;;13.82;100.00;97850.03;5043420;28;20577;-78
2022/04/07 06:50:56;;;;;;;1.67;1.30;;;;;;;13.97;100.00;97845.31;5048065;28;20233;-78
2022/04/07 06:53:23;;;;;;;1.10;1.00;;;;;;;13.91;100.00;97851.03;5045358;28;20248;-78
2022/04/07 06:55:50;;;;;;;1.10;1.00;;;;;;;14.21;100.00;97853.44;5040174;28;20233;-78
2022/04/07 06:58:17;;;;;;;1.67;1.20;;;;;;;14.43;100.00;97853.75;5050275;28;20230;-78
2022/04/07 07:00:45;;;;;;;1.37;1.20;;;;;;;14.61;100.00;97851.38;5050984;28;20223;-78
2022/04/07 07:03:14;;;;;;;2.10;1.60;;;;;;;14.74;100.00;97848.00;5049701;28;20232;-77
2022/04/07 07:05:41;;;;;;;1.40;1.30;;;;;;;15.03;100.00;97858.63;5046323;28;20240;-78
2022/04/07 07:08:12;;;;;;;1.20;1.10;;;;;;;15.08;100.00;97853.97;5046577;28;20240;-79
2022/04/07 07:10:39;;;;;;;1.47;1.37;;;;;;;15.24;100.00;97854.56;5050989;28;20218;-78
2022/04/07 07:13:06;;;;;;;1.23;1.13;;;;;;;15.30;100.00;97853.41;5045567;28;20235;-78
2022/04/07 07:15:32;;;;;;;1.00;1.00;;;;;;;15.40;100.00;97853.22;5047405;28;20234;-78
2022/04/07 07:17:59;;;;;;;1.43;1.20;;;;;;;15.68;100.00;97857.69;5049578;28;20710;-78
2022/04/07 07:20:26;;;;;;;1.40;1.30;;;;;;;15.70;100.00;97850.09;5047942;28;20242;-79
2022/04/07 07:22:53;;;;;;;1.43;1.27;;;;;;;15.73;100.00;97854.91;5045928;28;20231;-79
2022/04/07 07:25:20;;;;;;;1.40;1.30;;;;;;;15.72;100.00;97853.28;5052650;28;20272;-77
2022/04/07 07:27:47;;;;;;;1.37;1.10;;;;;;;15.80;100.00;97857.22;5048565;28;20246;-78
2022/04/07 07:30:15;;;;;;;2.07;1.17;;;;;;;15.91;100.00;97849.75;5049087;28;20230;-78
2022/04/07 07:32:44;;;;;;;1.43;1.00;;;;;;;16.18;100.00;97850.59;5053945;28;20231;-78
2022/04/07 07:35:12;;;;;;;2.67;1.00;;;;;;;16.39;100.00;97853.72;5045754;28;20227;-78
2022/04/07 07:37:53;;;;;;;1.97;0.90;;;;;;;16.45;99.63;97857.94;5042612;28;20251;-78
2022/04/07 07:40:22;;;;;;;1.43;0.90;;;;;;;16.60;100.00;97860.38;5045388;28;20723;-79
2022/04/07 07:42:52;;;;;;;1.13;0.70;;;;;;;16.62;99.19;97858.16;5049233;28;20234;-78
2022/04/07 07:45:19;;;;;;;0.60;0.60;;;;;;;16.99;97.54;97842.75;5050992;28;20242;-77
2022/04/07 07:48:07;;;;;;;2.27;0.80;;;;;;;17.52;89.86;97848.31;5048364;28;20323;-79
2022/04/07 07:50:33;;;;;;;0.70;0.70;;;;;;;17.74;84.99;97859.19;5053798;28;20243;-78
2022/04/07 07:53:00;;;;;;;1.07;0.60;;;;;;;17.73;84.26;97845.97;5048444;28;20232;-79
2022/04/07 07:55:27;;;;;;;1.17;0.60;;;;;;;17.87;86.44;97846.69;5049375;28;20611;-78
2022/04/07 07:57:54;;;;;;;0.63;0.60;;;;;;;18.06;82.45;97854.59;5051341;28;20225;-78
2022/04/07 08:00:23;;;;;;;1.90;0.70;;;;;;;17.71;83.38;97840.84;5051936;28;20276;-78
2022/04/07 08:02:50;;;;;;;0.70;0.60;;;;;;;17.88;80.49;97845.56;5044654;28;20225;-78
2022/04/07 08:05:17;;;;;;;0.73;0.60;;;;;;;18.01;83.01;97842.75;5055629;28;20247;-79
2022/04/07 08:07:44;;;;;;;0.87;0.70;;;;;;;17.64;77.35;97835.06;5055332;28;20682;-78
2022/04/07 08:10:10;;;;;;;0.60;0.60;;;;;;;17.81;79.34;97837.88;5055278;28;20283;-78
2022/04/07 08:12:38;;;;;;;1.17;0.60;;;;;;;17.79;79.83;97837.38;5055403;28;20259;-77
2022/04/07 08:15:05;;;;;;;1.50;0.67;;;;;;;17.80;79.16;97832.78;5055417;28;20237;-78
2022/04/07 08:17:33;;;;;;;0.90;0.50;;;;;;;17.89;79.39;97830.91;5055286;28;20233;-78
2022/04/07 08:19:59;;;;;;;1.03;0.60;;;;;;;17.97;77.42;97833.66;5055266;28;20610;-78
2022/04/07 08:22:27;;;;;;;0.50;0.50;;;;;;;18.27;74.58;97823.94;5054944;28;20229;-78
2022/04/07 08:24:56;;;;;;;0.93;0.50;;;;;;;18.33;70.25;97830.03;5055077;28;20221;-78
2022/04/07 08:27:26;;;;;;;0.40;0.40;;;;;;;18.36;68.45;97821.25;5055008;28;20264;-77
2022/04/07 08:29:53;;;;;;;1.43;0.63;;;;;;;18.36;67.11;97813.13;5055108;28;20229;-79
2022/04/07 08:32:19;;;;;;;1.43;0.40;;;;;;;18.81;65.75;97813.75;5048937;28;20236;-78
2022/04/07 08:34:46;;;;;;;0.33;0.33;;;;;;;18.77;63.05;97819.00;5048573;28;20260;-78
2022/04/07 08:37:14;;;;;;;0.60;0.30;;;;;;;18.61;61.55;97815.16;5054670;28;20279;-78
2022/04/07 08:39:40;;;;;;;0.40;0.40;;;;;;;18.97;63.59;97808.66;5055132;28;20261;-78
2022/04/07 08:42:07;;;;;;;1.17;0.40;;;;;;;18.99;63.81;97811.88;5054200;28;20236;-78
2022/04/07 08:44:34;;;;;;;0.40;0.40;;;;;;;19.12;60.34;97811.72;5054650;28;20229;-78
2022/04/07 08:47:01;;;;;;;0.43;0.40;;;;;;;19.06;58.64;97804.03;5054409;28;20242;-79
2022/04/07 08:49:30;;;;;;;0.40;0.40;;;;;;;18.90;59.06;97806.41;5046341;28;20408;-78
2022/04/07 08:51:57;;;;;;;0.73;0.40;;;;;;;19.04;56.13;97809.78;5043887;28;20232;-78
2022/04/07 08:54:24;;;;;;;1.20;0.50;;;;;;;19.02;56.47;97795.75;5054409;28;20229;-78
2022/04/07 08:56:51;;;;;;;1.13;0.50;;;;;;;19.28;56.05;97795.72;5054366;28;20237;-78
2022/04/07 08:59:18;;;;;;;0.40;0.40;;;;;;;19.28;53.78;97793.03;5044013;28;20234;-78
2022/04/07 09:01:45;;;;;;;0.30;0.30;;;;;;;19.23;52.64;97790.47;5054352;28;20230;-79
2022/04/07 09:04:13;;;;;;;0.90;0.53;;;;;;;19.05;51.75;97780.72;5053686;28;20251;-78
2022/04/07 09:06:41;;;;;;;0.60;0.50;;;;;;;18.85;52.60;97785.66;5053853;28;20328;-78
2022/04/07 09:09:19;;;;;;;0.57;0.30;;;;;;;18.47;53.41;97779.19;5053904;28;20229;-78
2022/04/07 09:11:46;;;;;;;0.83;0.40;;;;;;;18.77;52.58;97785.66;5054372;28;20233;-78
2022/04/07 09:14:14;;;;;;;0.50;0.40;;;;;;;18.71;51.31;97776.84;5053585;28;20264;-78
2022/04/07 09:16:41;;;;;;;0.77;0.50;;;;;;;18.96;50.27;97769.06;5053022;28;20225;-78
2022/04/07 09:19:08;;;;;;;0.50;0.40;;;;;;;19.03;48.94;97772.13;5054504;28;20304;-78
2022/04/07 09:21:36;;;;;;;1.00;0.50;;;;;;;18.94;49.95;97768.59;5053694;28;20693;-78
2022/04/07 09:24:07;;;;;;;0.83;0.40;;;;;;;18.94;48.57;97763.19;5053571;28;20227;-78
2022/04/07 09:26:35;;;;;;;0.40;0.40;;;;;;;18.99;49.77;97771.16;5053998;28;20221;-78
2022/04/07 09:29:09;;;;;;;0.70;0.40;;;;;;;18.84;46.71;97770.50;5054046;28;20233;-78
2022/04/07 09:31:39;;;;;;;0.77;0.30;;;;;;;18.68;46.90;97758.50;5053774;28;20236;-77
2022/04/07 09:34:06;;;;;;;0.93;0.30;;;;;;;18.75;47.44;97758.84;5045895;28;20275;-78
2022/04/07 09:36:33;;;;;;;0.80;0.30;;;;;;;18.92;47.23;97775.16;5048561;28;20232;-78
2022/04/07 09:39:01;;;;;;;0.37;0.30;;;;;;;19.07;45.97;97768.44;5042220;28;20240;-78
2022/04/07 09:41:29;;;;;;;0.47;0.37;;;;;;;19.01;43.97;97760.78;5044369;28;20233;-79
2022/04/07 09:43:59;;;;;;;0.30;0.30;;;;;;;19.28;45.10;97758.53;5053258;28;20237;-78
2022/04/07 09:46:38;;;;;;;0.30;0.30;;;;;;;19.44;43.47;97756.16;5048188;28;20229;-79
2022/04/07 09:49:10;;;;;;;0.30;0.30;;;;;;;19.67;42.15;97743.16;5047973;28;20708;-78
2022/04/07 09:51:40;;;;;;;0.40;0.37;;;;;;;19.75;42.20;97750.47;5053437;28;20228;-78
2022/04/07 09:54:11;;;;;;;1.13;0.30;;;;;;;20.03;41.12;97738.06;5053228;28;20245;-78
2022/04/07 09:56:39;;;;;;;1.13;0.40;;;;;;;20.00;38.43;97733.28;5053631;28;20248;-78
2022/04/07 09:59:06;;;;;;;0.67;0.30;;;;;;;20.28;37.19;97727.41;5056367;28;20251;-78
2022/04/07 10:01:34;;;;;;;0.30;0.30;;;;;;;20.60;37.22;97726.75;5064289;28;20238;-78
2022/04/07 10:04:02;;;;;;;0.53;0.30;;;;;;;20.57;37.00;97724.69;5053284;28;20237;-78
2022/04/07 10:06:30;;;;;;;1.07;0.20;;;;;;;20.92;36.99;97719.78;5059742;28;20273;-77
2022/04/07 10:08:59;;;;;;;0.30;0.30;;;;;;;21.09;36.56;97723.16;5060251;28;20324;-78
2022/04/07 10:11:31;;;;;;;0.37;0.30;;;;;;;21.35;36.23;97722.16;5054389;28;20289;-79
2022/04/07 10:13:58;;;;;;;1.10;0.37;;;;;;;21.43;34.91;97713.91;5050299;28;20586;-78
2022/04/07 10:16:44;;;;;;;0.30;0.30;;;;;;;21.41;36.11;97712.66;5053223;28;20245;-79
2022/04/07 10:19:53;;;;;;;0.40;0.40;;;;;;;21.42;34.08;97698.69;5052455;28;20279;-77
2022/04/07 10:22:32;;;;;;;0.40;0.30;;;;;;;21.20;35.05;97701.78;4991021;28;20834;-77
2022/04/07 10:25:03;;;;;;;0.67;0.67;;;;;;;20.82;35.49;97704.66;5040453;28;20236;-77
2022/04/07 10:27:35;;;;;;;1.17;0.30;;;;;;;20.59;36.03;97706.09;5052903;28;20247;-78
2022/04/07 10:30:14;;;;;;;1.13;0.40;;;;;;;20.68;35.28;97704.13;5047672;28;20822;-77
2022/04/07 10:32:46;;;;;;;0.93;0.50;;;;;;;20.31;35.92;97705.00;5052863;28;20233;-78
2022/04/07 10:35:32;;;;;;;0.53;0.33;;;;;;;20.12;35.80;97700.75;5045811;28;20804;-77
2022/04/07 10:38:01;;;;;;;0.43;0.30;;;;;;;20.19;35.85;97687.47;5052288;28;20768;-78
2022/04/07 10:40:38;;;;;;;0.50;0.40;;;;;;;20.59;35.28;97685.13;5046920;28;20232;-78
2022/04/07 10:43:21;;;;;;;0.50;0.50;;;;;;;20.94;35.28;97669.34;5051659;28;20220;-79
2022/04/07 10:45:52;;;;;;;0.40;0.30;;;;;;;21.41;33.73;97683.47;5052366;28;20237;-77
2022/04/07 10:48:30;;;;;;;0.40;0.30;;;;;;;21.44;32.22;97669.19;5050750;28;20225;-77
2022/04/07 10:51:05;;;;;;;0.53;0.33;;;;;;;21.81;32.36;97650.16;5052287;28;20625;-78
2022/04/07 10:53:41;;;;;;;1.13;0.40;;;;;;;21.87;32.91;97662.41;5052167;28;20244;-78
2022/04/07 10:56:25;;;;;;;1.13;0.50;;;;;;;21.75;31.88;97655.03;5051874;28;20775;-77
2022/04/07 10:58:55;;;;;;;0.30;0.30;;;;;;;21.60;29.98;97636.63;5052189;28;20252;-77
2022/04/07 11:01:41;;;;;;;0.80;0.40;;;;;;;20.80;30.72;97630.72;5051886;28;20246;-78
2022/04/07 11:04:20;;;;;;;1.10;0.90;;;;;;;20.85;31.47;97632.44;5051308;28;20265;-78
2022/04/07 11:07:02;;;;;;;0.60;0.60;;;;;;;20.59;32.63;97628.00;5051797;28;20333;-78
2022/04/07 11:09:57;;;;;;;0.60;0.40;;;;;;;20.39;33.46;97628.81;5051984;28;20299;-77
2022/04/07 11:12:28;;;;;;;0.30;0.30;;;;;;;20.35;31.89;97627.88;5051271;28;20674;-77
2022/04/07 11:15:01;;;;;;;0.73;0.37;;;;;;;20.09;32.91;97622.59;5052065;28;20218;-78
2022/04/07 11:17:46;;;;;;;1.17;0.30;;;;;;;20.06;32.46;97623.22;5051921;28;20221;-78
2022/04/07 11:20:19;;;;;;;0.40;0.30;;;;;;;19.93;33.44;97642.50;5051209;28;20236;-78
2022/04/07 11:23:13;;;;;;;1.07;0.30;;;;;;;19.92;33.44;97630.06;5051811;28;20225;-77
2022/04/07 11:25:42;;;;;;;0.30;0.30;;;;;;;19.61;34.45;97625.72;5052046;28;20254;-76
2022/04/07 11:28:12;;;;;;;1.70;0.60;;;;;;;19.70;35.16;97609.38;5048833;28;20279;-78
2022/04/07 11:30:55;;;;;;;0.53;0.40;;;;;;;19.59;34.42;97608.97;5051668;28;20237;-78
2022/04/07 11:33:25;;;;;;;1.10;0.40;;;;;;;19.59;35.09;97592.66;5051553;28;20332;-77
2022/04/07 11:35:58;;;;;;;0.40;0.30;;;;;;;19.67;35.37;97585.59;5051798;28;20638;-77